createdAt,value
2019-04-19T00:02:25.854Z,92.60
2019-04-19T00:04:57.490Z,92.20
2019-04-19T00:07:27.105Z,92.30
2019-04-19T00:10:02.666Z,92.40
2019-04-19T00:12:37.336Z,93.10
2019-04-19T00:14:56.978Z,93.10
2019-04-19T00:17:29.353Z,93.10
2019-04-19T00:20:22.322Z,93.30
2019-04-19T00:22:44.632Z,94.20
2019-04-19T00:24:59.176Z,93.80
2019-04-19T00:27:36.650Z,93.80
2019-04-19T00:30:08.139Z,94.10
2019-04-19T00:32:43.010Z,94.00
2019-04-19T00:35:01.238Z,94.00
2019-04-19T00:37:31.050Z,94.00
2019-04-19T00:40:22.719Z,94.20
2019-04-19T00:43:05.883Z,94.90
2019-04-19T00:45:53.847Z,95.30
2019-04-19T00:48:14.605Z,94.20
2019-04-19T00:50:46.953Z,94.80
2019-04-19T00:53:21.021Z,95.70
2019-04-19T00:55:48.607Z,95.70
2019-04-19T00:58:18.456Z,95.70
2019-04-19T01:00:41.827Z,96.30
2019-04-19T01:03:15.919Z,96.40
2019-04-19T01:05:52.439Z,96.30
2019-04-19T01:08:20.765Z,95.90
2019-04-19T01:11:02.499Z,96.40
2019-04-19T01:13:35.732Z,96.30
2019-04-19T01:16:01.359Z,97.00
2019-04-19T01:18:31.248Z,97.20
2019-04-19T01:20:50.133Z,96.80
2019-04-19T01:23:20.089Z,97.10
2019-04-19T01:25:53.985Z,98.20
2019-04-19T01:28:24.523Z,97.50
2019-04-19T01:30:52.657Z,96.50
2019-04-19T01:33:38.976Z,96.70
2019-04-19T01:36:04.610Z,96.80
2019-04-19T01:38:43.488Z,97.90
2019-04-19T01:41:20.831Z,98.20
2019-04-19T01:43:58.503Z,97.70
2019-04-19T01:46:55.918Z,98.10
2019-04-19T01:49:30.053Z,98.00
2019-04-19T01:52:13.159Z,98.70
2019-04-19T01:54:42.548Z,99.50
2019-04-19T01:57:00.689Z,98.90
2019-04-19T01:59:35.229Z,99.00
2019-04-19T02:02:03.806Z,99.20
2019-04-19T02:04:31.948Z,98.70
2019-04-19T02:07:00.522Z,99.40
2019-04-19T02:09:45.330Z,99.70
2019-04-19T02:12:18.283Z,98.90
2019-04-19T02:14:46.306Z,99.10
2019-04-19T02:17:08.257Z,99.90
2019-04-19T02:19:37.318Z,99.90
2019-04-19T02:22:14.315Z,99.90
2019-04-19T02:24:45.299Z,99.90
2019-04-19T02:27:11.801Z,99.90
2019-04-19T02:29:43.742Z,99.90
2019-04-19T02:35:06.638Z,99.90
2019-04-19T02:48:19.874Z,99.60
2019-04-19T02:50:12.908Z,99.90
2019-04-19T02:52:49.092Z,99.90
2019-04-19T02:55:41.321Z,99.90
2019-04-19T03:01:05.285Z,99.90
2019-04-19T03:03:27.537Z,99.90
2019-04-19T03:05:56.145Z,99.90
2019-04-19T03:08:08.244Z,99.90
2019-04-19T03:10:53.744Z,99.90
2019-04-19T03:13:21.800Z,99.90
2019-04-19T03:15:54.432Z,99.90
2019-04-19T03:20:54.205Z,99.90
2019-04-19T03:23:27.933Z,99.90
2019-04-19T03:25:55.763Z,99.90
2019-04-19T03:28:21.966Z,99.90
2019-04-19T03:31:23.605Z,99.90
2019-04-19T03:33:44.077Z,99.90
2019-04-19T03:36:05.346Z,99.90
2019-04-19T03:38:34.009Z,99.90
2019-04-19T03:41:09.334Z,99.90
2019-04-19T03:43:48.962Z,99.90
2019-04-19T03:46:17.329Z,99.90
2019-04-19T03:48:49.975Z,99.90
2019-04-19T03:51:15.388Z,99.90
2019-04-19T03:53:51.708Z,99.90
2019-04-19T03:56:30.409Z,99.90
2019-04-19T03:58:33.915Z,99.90
2019-04-19T04:01:04.507Z,99.90
2019-04-19T04:03:38.490Z,99.90
2019-04-19T04:06:04.550Z,99.90
2019-04-19T04:08:38.826Z,99.90
2019-04-19T04:11:26.816Z,99.90
2019-04-19T04:14:12.693Z,99.90
2019-04-19T04:16:55.423Z,99.90
2019-04-19T04:19:25.147Z,99.90
2019-04-19T04:21:55.738Z,99.90
2019-04-19T04:24:32.472Z,99.90
2019-04-19T04:27:06.061Z,99.90
2019-04-19T04:29:34.503Z,99.90
2019-04-19T04:32:11.469Z,99.90
2019-04-19T04:34:41.031Z,99.90
2019-04-19T04:37:17.036Z,99.90
2019-04-19T04:39:32.404Z,99.90
2019-04-19T04:42:11.239Z,99.90
2019-04-19T04:45:02.074Z,99.90
2019-04-19T04:47:38.561Z,99.90
2019-04-19T04:50:20.904Z,99.90
2019-04-19T04:52:42.345Z,99.90
2019-04-19T04:55:17.928Z,99.90
2019-04-19T04:57:53.859Z,99.90
2019-04-19T05:00:20.858Z,99.90
2019-04-19T05:03:03.793Z,99.90
2019-04-19T05:05:39.591Z,99.90
2019-04-19T05:08:14.539Z,99.90
2019-04-19T05:10:35.619Z,99.90
2019-04-19T05:13:19.809Z,99.90
2019-04-19T05:15:41.637Z,99.90
2019-04-19T05:18:17.269Z,99.90
2019-04-19T05:20:45.169Z,99.90
2019-04-19T05:23:14.310Z,99.90
2019-04-19T05:25:44.421Z,99.90
2019-04-19T05:28:16.895Z,99.90
2019-04-19T05:30:41.201Z,99.90
2019-04-19T05:33:09.883Z,99.90
2019-04-19T05:35:52.171Z,99.90
2019-04-19T05:38:56.030Z,99.90
2019-04-19T05:41:12.607Z,99.90
2019-04-19T05:46:45.963Z,99.90
2019-04-19T05:49:10.373Z,99.90
2019-04-19T05:51:47.383Z,99.90
2019-04-19T05:54:03.234Z,99.90
2019-04-19T05:56:28.524Z,99.90
2019-04-19T05:59:05.838Z,99.90
2019-04-19T06:01:46.938Z,99.90
2019-04-19T06:04:18.531Z,99.90
2019-04-19T06:06:52.308Z,99.90
2019-04-19T06:09:02.467Z,99.90
2019-04-19T06:11:34.655Z,99.90
2019-04-19T06:14:30.504Z,99.90
2019-04-19T06:16:53.986Z,99.90
2019-04-19T06:19:27.659Z,99.90
2019-04-19T06:21:53.590Z,99.90
2019-04-19T06:24:27.652Z,99.90
2019-04-19T06:27:07.024Z,99.90
2019-04-19T06:29:38.069Z,99.90
2019-04-19T06:32:07.375Z,99.90
2019-04-19T06:34:33.475Z,99.90
2019-04-19T06:36:57.559Z,99.80
2019-04-19T06:39:14.715Z,99.80
2019-04-19T06:41:50.310Z,99.60
2019-04-19T06:44:32.385Z,99.90
2019-04-19T06:46:57.176Z,99.70
2019-04-19T06:49:22.888Z,98.70
2019-04-19T06:51:59.840Z,98.10
2019-04-19T06:54:26.051Z,97.60
2019-04-19T06:57:00.795Z,97.60
2019-04-19T06:59:38.103Z,96.50
2019-04-19T07:01:55.935Z,97.40
2019-04-19T07:04:24.808Z,97.30
2019-04-19T07:07:15.260Z,95.90
2019-04-19T07:09:53.593Z,96.00
2019-04-19T07:12:18.665Z,95.70
2019-04-19T07:14:31.337Z,94.60
2019-04-19T07:17:15.154Z,93.20
2019-04-19T07:19:48.681Z,93.90
2019-04-19T07:22:18.185Z,93.40
2019-04-19T07:24:50.803Z,93.40
2019-04-19T07:27:15.120Z,92.00
2019-04-19T07:29:33.561Z,91.70
2019-04-19T07:32:03.876Z,91.70
2019-04-19T07:34:47.881Z,89.20
2019-04-19T07:37:18.457Z,85.00
2019-04-19T07:40:04.241Z,87.70
2019-04-19T07:42:28.086Z,88.00
2019-04-19T07:44:55.980Z,86.10
2019-04-19T07:47:42.748Z,87.00
2019-04-19T07:50:08.463Z,83.50
2019-04-19T07:52:40.216Z,81.80
2019-04-19T07:55:06.050Z,83.60
2019-04-19T07:58:03.398Z,82.40
2019-04-19T08:02:59.955Z,77.40
2019-04-19T08:05:26.566Z,79.50
2019-04-19T08:13:14.490Z,79.30
2019-04-19T08:15:37.247Z,80.10
2019-04-19T08:18:08.145Z,81.10
2019-04-19T08:27:56.399Z,74.30
2019-04-19T08:30:21.538Z,77.90
2019-04-19T08:32:48.953Z,77.30
2019-04-19T08:35:19.360Z,79.10
2019-04-19T08:37:51.539Z,77.40
2019-04-19T08:40:37.830Z,76.60
2019-04-19T08:43:13.808Z,74.60
2019-04-19T08:45:36.405Z,78.50
2019-04-19T08:48:20.201Z,78.30
2019-04-19T08:50:51.914Z,77.10
2019-04-19T08:53:36.145Z,78.40
2019-04-19T08:56:07.956Z,79.40
2019-04-19T08:58:38.376Z,77.80
2019-04-19T09:01:14.142Z,75.00
2019-04-19T09:03:46.161Z,77.20
2019-04-19T09:06:57.581Z,80.30
2019-04-19T09:08:43.472Z,81.10
2019-04-19T09:11:16.315Z,78.40
2019-04-19T09:13:52.243Z,80.10
2019-04-19T09:16:17.970Z,79.90
2019-04-19T09:18:56.039Z,75.80
2019-04-19T09:21:18.573Z,78.00
2019-04-19T09:23:39.322Z,79.50
2019-04-19T09:26:23.703Z,75.40
2019-04-19T09:28:54.481Z,77.80
2019-04-19T09:31:22.711Z,77.90
2019-04-19T09:33:39.871Z,81.70
2019-04-19T09:36:13.116Z,78.50
2019-04-19T09:38:59.997Z,76.70
2019-04-19T09:41:19.502Z,79.60
2019-04-19T09:43:53.614Z,77.60
2019-04-19T09:46:12.524Z,81.00
2019-04-19T09:49:02.437Z,76.60
2019-04-19T09:51:29.055Z,77.60
2019-04-19T09:54:11.420Z,79.30
2019-04-19T09:56:34.180Z,77.40
2019-04-19T09:58:57.581Z,80.60
2019-04-19T10:01:22.205Z,76.30
2019-04-19T10:03:54.345Z,75.20
2019-04-19T10:06:20.576Z,79.10
2019-04-19T10:08:49.996Z,76.60
2019-04-19T10:11:19.200Z,76.40
2019-04-19T10:13:48.443Z,78.20
2019-04-19T10:16:26.348Z,75.90
2019-04-19T10:19:01.057Z,78.80
2019-04-19T10:21:33.374Z,75.50
2019-04-19T10:24:06.959Z,76.70
2019-04-19T10:26:40.430Z,74.00
2019-04-19T10:29:19.824Z,75.20
2019-04-19T10:31:53.562Z,75.00
2019-04-19T10:34:22.717Z,76.70
2019-04-19T10:36:54.282Z,77.00
2019-04-19T10:39:25.701Z,68.20
2019-04-19T10:41:56.369Z,72.10
2019-04-19T10:44:27.178Z,71.40
2019-04-19T10:46:56.703Z,73.00
2019-04-19T10:49:33.425Z,73.00
2019-04-19T10:52:02.619Z,73.00
2019-04-19T10:54:32.884Z,78.10
2019-04-19T10:57:14.585Z,72.70
2019-04-19T10:59:44.723Z,70.90
2019-04-19T11:02:14.044Z,73.10
2019-04-19T11:04:43.196Z,71.40
2019-04-19T11:07:15.789Z,73.70
2019-04-19T11:09:45.821Z,75.90
2019-04-19T11:12:15.756Z,75.00
2019-04-19T11:14:46.198Z,74.50
2019-04-19T11:17:15.938Z,66.10
2019-04-19T11:19:58.298Z,71.20
2019-04-19T11:22:17.524Z,71.60
2019-04-19T11:24:47.758Z,66.50
2019-04-19T11:27:17.170Z,66.10
2019-04-19T11:29:46.835Z,73.30
2019-04-19T11:32:34.212Z,74.60
2019-04-19T11:35:03.692Z,70.10
2019-04-19T11:37:32.892Z,70.60
2019-04-19T11:40:03.468Z,66.20
2019-04-19T11:42:33.054Z,63.90
2019-04-19T11:45:02.262Z,65.50
2019-04-19T11:47:31.464Z,68.10
2019-04-19T11:50:01.894Z,70.00
2019-04-19T11:52:41.844Z,69.30
2019-04-19T11:55:11.209Z,66.10
2019-04-19T11:57:44.185Z,63.40
2019-04-19T12:00:32.225Z,63.50
2019-04-19T12:03:02.360Z,65.00
2019-04-19T12:05:34.037Z,60.20
2019-04-19T12:08:02.728Z,61.60
2019-04-19T12:10:33.562Z,66.80
2019-04-19T12:13:03.436Z,64.20
2019-04-19T12:15:34.262Z,62.00
2019-04-19T12:18:04.254Z,65.00
2019-04-19T12:20:33.542Z,59.10
2019-04-19T12:23:04.054Z,57.00
2019-04-19T12:25:33.459Z,56.30
2019-04-19T12:28:03.641Z,59.30
2019-04-19T12:30:33.619Z,63.00
2019-04-19T12:33:03.564Z,63.80
2019-04-19T12:35:32.968Z,62.10
2019-04-19T12:38:02.187Z,61.30
2019-04-19T12:40:36.022Z,62.50
2019-04-19T12:43:05.450Z,54.30
2019-04-19T12:45:35.738Z,53.50
2019-04-19T12:48:05.066Z,53.70
2019-04-19T12:50:36.168Z,61.70
2019-04-19T12:53:06.233Z,61.40
2019-04-19T12:55:35.828Z,54.60
2019-04-19T12:58:05.998Z,56.30
2019-04-19T13:00:54.230Z,57.10
2019-04-19T13:03:42.213Z,53.20
2019-04-19T13:06:13.429Z,57.10
2019-04-19T13:08:43.226Z,58.40
2019-04-19T13:11:12.525Z,55.20
2019-04-19T13:13:42.058Z,57.00
2019-04-19T13:16:12.404Z,54.30
2019-04-19T13:18:42.544Z,54.70
2019-04-19T13:21:11.776Z,50.30
2019-04-19T13:23:42.301Z,50.60
2019-04-19T13:26:11.754Z,52.10
2019-04-19T13:28:41.618Z,52.90
2019-04-19T13:31:12.771Z,52.30
2019-04-19T13:33:42.102Z,51.40
2019-04-19T13:36:15.236Z,50.90
2019-04-19T13:39:03.588Z,50.90
2019-04-19T13:41:41.228Z,50.80
2019-04-19T13:44:11.220Z,43.70
2019-04-19T13:46:40.699Z,45.10
2019-04-19T13:49:10.504Z,43.30
2019-04-19T13:51:41.091Z,47.80
2019-04-19T13:54:10.323Z,48.70
2019-04-19T13:56:40.601Z,47.70
2019-04-19T13:59:09.872Z,47.60
2019-04-19T14:01:39.107Z,46.20
2019-04-19T14:04:08.248Z,48.90
2019-04-19T14:06:38.233Z,49.50
2019-04-19T14:09:09.307Z,51.40
2019-04-19T14:11:39.430Z,50.20
2019-04-19T14:14:09.803Z,47.40
2019-04-19T14:16:39.782Z,44.80
2019-04-19T14:19:10.600Z,44.30
2019-04-19T14:21:40.097Z,46.80
2019-04-19T14:24:09.427Z,45.90
2019-04-19T14:26:45.043Z,44.20
2019-04-19T14:29:09.747Z,46.50
2019-04-19T14:31:39.934Z,45.20
2019-04-19T14:34:09.231Z,42.30
2019-04-19T14:36:38.454Z,43.70
2019-04-19T14:39:09.012Z,49.80
2019-04-19T14:41:38.189Z,49.40
2019-04-19T14:44:07.524Z,46.20
2019-04-19T14:46:36.923Z,41.30
2019-04-19T14:49:07.041Z,41.80
2019-04-19T14:51:39.238Z,41.60
2019-04-19T14:54:07.254Z,40.40
2019-04-19T14:56:37.146Z,43.00
2019-04-19T14:59:08.430Z,43.40
2019-04-19T15:02:02.712Z,42.10
2019-04-19T15:04:51.920Z,41.90
2019-04-19T15:07:22.818Z,43.90
2019-04-19T15:09:53.295Z,42.40
2019-04-19T15:12:22.890Z,43.00
2019-04-19T15:14:53.464Z,44.30
2019-04-19T15:17:23.735Z,45.10
2019-04-19T15:19:52.953Z,44.40
2019-04-19T15:22:22.242Z,43.00
2019-04-19T15:24:52.791Z,47.90
2019-04-19T15:27:23.137Z,48.30
2019-04-19T15:29:52.763Z,46.50
2019-04-19T15:32:22.313Z,44.30
2019-04-19T15:34:51.802Z,43.30
2019-04-19T15:37:22.092Z,44.30
2019-04-19T15:39:52.030Z,44.10
2019-04-19T15:42:22.346Z,43.10
2019-04-19T15:44:53.110Z,46.30
2019-04-19T15:47:22.610Z,47.10
2019-04-19T15:49:51.797Z,49.30
2019-04-19T15:52:22.023Z,49.30
2019-04-19T15:54:52.337Z,44.10
2019-04-19T15:57:21.564Z,46.30
2019-04-19T15:59:51.755Z,43.90
2019-04-19T16:02:40.300Z,44.00
2019-04-19T16:05:42.260Z,46.20
2019-04-19T16:08:32.407Z,46.20
2019-04-19T16:11:30.876Z,46.10
2019-04-19T16:14:01.791Z,43.70
2019-04-19T16:16:31.310Z,46.00
2019-04-19T16:19:00.551Z,44.10
2019-04-19T16:21:35.689Z,45.50
2019-04-19T16:24:00.967Z,47.40
2019-04-19T16:26:30.938Z,45.10
2019-04-19T16:29:00.345Z,46.00
2019-04-19T16:31:30.622Z,48.20
2019-04-19T16:33:59.885Z,45.80
2019-04-19T16:36:29.099Z,47.20
2019-04-19T16:38:58.809Z,47.30
2019-04-19T16:41:28.972Z,44.80
2019-04-19T16:43:58.313Z,46.80
2019-04-19T16:46:30.306Z,47.40
2019-04-19T16:48:58.406Z,48.30
2019-04-19T16:51:37.651Z,46.50
2019-04-19T16:53:58.555Z,46.20
2019-04-19T16:56:27.860Z,45.90
2019-04-19T16:59:01.073Z,48.40
2019-04-19T17:01:28.386Z,47.20
2019-04-19T17:03:57.713Z,46.60
2019-04-19T17:06:26.885Z,45.90
2019-04-19T17:08:56.784Z,45.70
2019-04-19T17:11:26.889Z,45.60
2019-04-19T17:13:56.573Z,46.90
2019-04-19T17:16:44.410Z,46.00
2019-04-19T17:19:24.686Z,46.30
2019-04-19T17:22:03.656Z,48.70
2019-04-19T17:24:25.013Z,46.80
2019-04-19T17:26:55.265Z,46.40
2019-04-19T17:29:24.833Z,49.60
2019-04-19T17:31:54.292Z,49.50
2019-04-19T17:34:24.342Z,46.60
2019-04-19T17:36:53.928Z,47.70
2019-04-19T17:39:24.547Z,48.10
2019-04-19T17:41:54.657Z,50.30
2019-04-19T17:44:24.089Z,48.10
2019-04-19T17:46:54.457Z,48.20
2019-04-19T17:49:24.927Z,49.10
2019-04-19T17:52:04.312Z,48.40
2019-04-19T17:54:45.710Z,48.30
2019-04-19T17:56:55.929Z,49.20
2019-04-19T17:59:25.156Z,47.00
2019-04-19T18:01:55.152Z,47.90
2019-04-19T18:04:24.433Z,47.80
2019-04-19T18:06:57.927Z,47.10
2019-04-19T18:09:25.060Z,47.60
2019-04-19T18:11:55.832Z,47.70
2019-04-19T18:14:25.539Z,47.70
2019-04-19T18:16:54.816Z,47.50
2019-04-19T18:19:29.646Z,48.00
2019-04-19T18:21:56.297Z,48.20
2019-04-19T18:24:29.774Z,47.80
2019-04-19T18:27:04.630Z,48.30
2019-04-19T18:29:30.198Z,47.30
2019-04-19T18:32:08.189Z,49.40
2019-04-19T18:34:45.713Z,46.90
2019-04-19T18:37:17.280Z,48.10
2019-04-19T18:39:45.776Z,47.80
2019-04-19T18:42:15.799Z,48.20
2019-04-19T18:44:49.932Z,50.70
2019-04-19T18:47:16.699Z,48.00
2019-04-19T18:49:46.064Z,49.20
2019-04-19T18:52:32.568Z,50.10
2019-04-19T18:57:28.637Z,47.90
2019-04-19T19:00:01.568Z,48.80
2019-04-19T19:02:30.226Z,49.30
2019-04-19T19:05:04.854Z,49.00
2019-04-19T19:07:32.769Z,51.50
2019-04-19T19:10:04.136Z,51.70
2019-04-19T19:12:35.819Z,51.60
2019-04-19T19:15:06.298Z,51.20
2019-04-19T19:20:16.908Z,55.10
2019-04-19T19:22:58.549Z,56.60
2019-04-19T19:25:32.214Z,57.00
2019-04-19T19:27:48.689Z,59.30
2019-04-19T19:30:20.678Z,59.40
2019-04-19T19:32:53.949Z,58.60
2019-04-19T19:35:24.990Z,57.90
2019-04-19T19:37:52.460Z,60.50
2019-04-19T19:40:31.178Z,57.90
2019-04-19T19:43:11.773Z,60.30
2019-04-19T19:45:38.685Z,58.80
2019-04-19T19:48:18.860Z,60.80
2019-04-19T19:50:53.990Z,60.30
2019-04-19T19:53:25.735Z,59.80
2019-04-19T19:56:02.889Z,59.70
2019-04-19T19:58:16.171Z,61.20
2019-04-19T20:00:47.686Z,62.70
2019-04-19T20:03:15.700Z,63.00
2019-04-19T20:05:38.376Z,61.50
2019-04-19T20:08:06.329Z,61.20
2019-04-19T20:10:41.582Z,64.80
2019-04-19T20:13:10.959Z,63.70
2019-04-19T20:15:39.577Z,64.60
2019-04-19T20:18:08.460Z,64.60
2019-04-19T20:20:42.322Z,65.50
2019-04-19T20:23:19.387Z,65.90
2019-04-19T20:25:48.719Z,67.40
2019-04-19T20:28:15.037Z,65.90
2019-04-19T20:30:46.869Z,65.60
2019-04-19T20:33:16.160Z,68.30
2019-04-19T20:35:52.287Z,67.30
2019-04-19T20:38:20.072Z,68.30
2019-04-19T20:40:54.635Z,68.00
2019-04-19T20:43:35.087Z,68.40
2019-04-19T20:45:52.567Z,66.60
2019-04-19T20:48:25.943Z,70.50
2019-04-19T20:51:05.735Z,69.90
2019-04-19T20:53:35.778Z,69.90
2019-04-19T20:58:40.806Z,71.10
2019-04-19T21:01:03.056Z,71.50
2019-04-19T21:03:34.755Z,72.50
2019-04-19T21:06:03.941Z,71.80
2019-04-19T21:08:37.636Z,72.70
2019-04-19T21:11:07.728Z,73.00
2019-04-19T21:13:38.205Z,73.00
2019-04-19T21:16:06.693Z,72.20
2019-04-19T21:18:35.985Z,74.30
2019-04-19T21:21:08.955Z,73.20
2019-04-19T21:23:36.366Z,71.30
2019-04-19T21:26:14.665Z,71.40
2019-04-19T21:28:42.874Z,73.30
2019-04-19T21:31:09.235Z,72.50
2019-04-19T21:33:39.550Z,71.60
2019-04-19T21:36:11.589Z,72.40
2019-04-19T21:38:40.287Z,72.00
2019-04-19T21:41:18.511Z,73.20
2019-04-19T21:43:42.019Z,72.70
2019-04-19T21:46:12.565Z,73.70
2019-04-19T21:48:44.412Z,74.40
2019-04-19T21:51:18.389Z,75.10
2019-04-19T21:53:47.799Z,74.70
2019-04-19T21:56:16.674Z,75.70
2019-04-19T21:58:49.528Z,74.50
2019-04-19T22:01:20.657Z,74.50
2019-04-19T22:03:55.104Z,74.20
2019-04-19T22:06:25.861Z,75.80
2019-04-19T22:08:52.355Z,75.30
2019-04-19T22:11:22.508Z,75.10
2019-04-19T22:13:53.846Z,74.70
2019-04-19T22:16:31.644Z,75.70
2019-04-19T22:18:56.038Z,76.40
2019-04-19T22:21:30.326Z,75.90
2019-04-19T22:23:56.463Z,76.30
2019-04-19T22:26:32.036Z,76.90
2019-04-19T22:28:57.621Z,76.80
2019-04-19T22:31:31.035Z,78.30
2019-04-19T22:33:58.577Z,77.90
2019-04-19T22:36:30.019Z,77.40
2019-04-19T22:39:00.391Z,77.80
2019-04-19T22:41:30.787Z,78.40
2019-04-19T22:44:00.584Z,77.90
2019-04-19T22:46:34.195Z,79.30
2019-04-19T22:49:05.589Z,79.30
2019-04-19T22:51:32.898Z,79.40
2019-04-19T22:54:02.224Z,79.60
2019-04-19T22:56:36.803Z,80.20
2019-04-19T22:59:05.528Z,81.20
2019-04-19T23:02:01.999Z,83.40
2019-04-19T23:04:29.561Z,82.40
2019-04-19T23:07:04.053Z,81.80
2019-04-19T23:09:30.784Z,82.30
2019-04-19T23:12:00.489Z,82.50
2019-04-19T23:14:48.452Z,82.90
2019-04-19T23:17:26.160Z,82.30
2019-04-19T23:19:53.332Z,80.70
2019-04-19T23:22:27.020Z,81.80
2019-04-19T23:24:56.915Z,84.80
2019-04-19T23:27:35.704Z,87.40
2019-04-19T23:30:14.957Z,88.00
2019-04-19T23:32:41.095Z,89.10
2019-04-19T23:35:12.127Z,88.60
2019-04-19T23:37:42.471Z,90.70
2019-04-19T23:40:13.094Z,90.50
2019-04-19T23:42:45.376Z,89.20
2019-04-19T23:45:14.319Z,88.00
2019-04-19T23:47:48.240Z,89.80
2019-04-19T23:50:15.479Z,90.30
2019-04-19T23:52:50.964Z,90.20
2019-04-19T23:55:15.534Z,90.00
2019-04-19T23:57:49.099Z,90.30
